Time;durP1;ratioP1;P1;durP2;ratioP2;P2;SDS_P1;SDS_P2;PMS_P1;PMS_P2;Temp;Humidity;BMP_temperature;BMP_pressure;BME280_temperature;BME280_humidity;BME280_pressure;Samples;Min_cycle;Max_cycle;Signal;HPM_P1;HPM_P2
2022/03/07 00:01:30;;;;;;;19.27;5.87;;;;;;;0.23;53.38;100445.45;1742913;82;21114;-61
2022/03/07 00:04:02;;;;;;;17.80;6.95;;;;;;;0.23;53.39;100450.84;1712174;82;21463;-60
2022/03/07 00:06:32;;;;;;;15.32;6.22;;;;;;;0.20;53.37;100447.06;1743398;82;21194;-60
2022/03/07 00:09:02;;;;;;;12.70;5.83;;;;;;;0.18;53.48;100442.30;1743329;81;21038;-60
2022/03/07 00:11:33;;;;;;;11.30;5.05;;;;;;;0.17;53.50;100441.94;1743001;81;21063;-61
2022/03/07 00:14:04;;;;;;;13.85;5.17;;;;;;;0.17;53.49;100439.23;1625532;87;21086;-60
2022/03/07 00:16:34;;;;;;;10.20;4.47;;;;;;;0.15;53.56;100435.82;1649539;86;21483;-60
2022/03/07 00:19:04;;;;;;;13.20;4.55;;;;;;;0.15;53.58;100438.52;1656859;86;21054;-60
2022/03/07 00:21:34;;;;;;;10.82;4.78;;;;;;;0.15;53.58;100430.43;1634207;86;21023;-60
2022/03/07 00:24:07;;;;;;;8.90;4.17;;;;;;;0.15;53.68;100427.73;1656571;86;21066;-61
2022/03/07 00:26:36;;;;;;;12.07;5.67;;;;;;;0.15;53.55;100419.66;1656529;85;21082;-60
2022/03/07 00:29:08;;;;;;;10.25;4.15;;;;;;;0.14;53.62;100415.74;1656688;86;21059;-60
2022/03/07 00:31:40;;;;;;;8.63;3.87;;;;;;;0.13;53.71;100414.04;1678222;82;21032;-61
2022/03/07 00:34:09;;;;;;;11.38;4.50;;;;;;;0.12;53.71;100412.33;1738069;82;21055;-61
2022/03/07 00:36:38;;;;;;;10.20;4.60;;;;;;;0.12;53.76;100410.48;1738034;82;21487;-59
2022/03/07 00:39:08;;;;;;;9.00;4.22;;;;;;;0.13;53.73;100399.22;1738054;82;21186;-61
2022/03/07 00:41:40;;;;;;;8.85;4.37;;;;;;;0.11;53.71;100390.41;1738477;82;21103;-60
2022/03/07 00:44:11;;;;;;;11.10;3.95;;;;;;;0.13;53.78;100392.00;1738083;81;21036;-60
2022/03/07 00:46:40;;;;;;;7.47;3.80;;;;;;;0.14;53.70;100389.66;1738085;82;21083;-61
2022/03/07 00:49:11;;;;;;;8.13;3.60;;;;;;;0.12;53.63;100384.89;1738017;82;21035;-60
2022/03/07 00:51:41;;;;;;;6.95;3.50;;;;;;;0.06;53.68;100384.08;1738044;82;21012;-59
2022/03/07 00:54:12;;;;;;;6.70;3.12;;;;;;;0.02;53.82;100385.33;1717716;82;21079;-59
2022/03/07 00:56:42;;;;;;;5.50;3.10;;;;;;;-0.01;53.95;100386.41;1738062;82;21090;-60
2022/03/07 00:59:14;;;;;;;5.35;3.00;;;;;;;0.02;53.95;100384.47;1738186;82;21031;-61
2022/03/07 01:01:43;;;;;;;5.42;3.40;;;;;;;0.04;53.80;100381.15;1737949;82;21083;-61
2022/03/07 01:04:15;;;;;;;5.75;3.00;;;;;;;0.04;53.83;100372.58;1738171;82;21000;-59
2022/03/07 01:06:45;;;;;;;4.92;2.83;;;;;;;0.04;53.89;100364.50;1738308;82;21039;-60
2022/03/07 01:09:17;;;;;;;7.30;3.17;;;;;;;0.05;53.83;100366.20;1738316;82;21019;-60
2022/03/07 01:11:47;;;;;;;6.08;2.72;;;;;;;0.02;53.62;100351.66;1738046;82;21063;-61
2022/03/07 01:14:19;;;;;;;5.65;2.90;;;;;;;0.01;53.59;100355.33;1738180;82;21068;-61
2022/03/07 01:16:48;;;;;;;5.08;2.85;;;;;;;-0.01;53.66;100348.70;1738159;82;21043;-60
2022/03/07 01:19:22;;;;;;;7.40;2.70;;;;;;;0.03;53.55;100348.47;1746267;82;21056;-60
2022/03/07 01:21:52;;;;;;;5.67;2.80;;;;;;;0.02;53.64;100344.92;1746277;82;21106;-60
2022/03/07 01:24:22;;;;;;;4.90;2.47;;;;;;;0.04;53.48;100337.56;1746309;82;21485;-60
2022/03/07 01:26:51;;;;;;;5.40;2.33;;;;;;;0.03;53.55;100334.51;1746296;82;21127;-60
2022/03/07 01:29:23;;;;;;;4.90;2.55;;;;;;;0.04;53.47;100334.02;1746252;82;21141;-61
2022/03/07 01:31:54;;;;;;;4.58;2.60;;;;;;;0.07;53.49;100333.26;1746228;82;21463;-63
2022/03/07 01:34:25;;;;;;;5.87;2.30;;;;;;;0.09;53.34;100331.78;1746386;82;21470;-59
2022/03/07 01:36:54;;;;;;;4.22;2.25;;;;;;;0.06;53.34;100326.66;1746325;82;21067;-59
2022/03/07 01:39:28;;;;;;;3.98;1.90;;;;;;;0.05;53.47;100325.80;1746238;81;21003;-60
2022/03/07 01:42:00;;;;;;;4.00;2.20;;;;;;;0.06;53.41;100328.00;1746274;82;21031;-61
2022/03/07 01:44:31;;;;;;;3.67;2.17;;;;;;;0.06;53.49;100328.00;1746511;81;21082;-60
2022/03/07 01:47:02;;;;;;;4.72;2.25;;;;;;;0.07;53.44;100321.63;1746350;82;21046;-60
2022/03/07 01:49:32;;;;;;;4.47;2.37;;;;;;;0.04;53.41;100314.67;1746550;82;21091;-59
2022/03/07 01:52:02;;;;;;;5.53;2.40;;;;;;;0.02;53.47;100321.17;1746444;81;21066;-61
2022/03/07 01:54:34;;;;;;;4.33;2.08;;;;;;;-0.01;53.58;100323.61;1666111;86;21079;-61
2022/03/07 01:57:04;;;;;;;4.72;2.22;;;;;;;-0.05;53.50;100320.81;1666177;86;21180;-60
2022/03/07 01:59:37;;;;;;;5.75;2.20;;;;;;;-0.06;53.63;100328.53;1666107;86;21050;-59
2022/03/07 02:02:08;;;;;;;4.95;2.30;;;;;;;-0.06;53.67;100328.04;1666095;85;21511;-60
2022/03/07 02:04:43;;;;;;;4.22;2.22;;;;;;;-0.03;53.71;100322.88;1643968;86;21083;-59
2022/03/07 02:07:14;;;;;;;3.90;2.20;;;;;;;-0.05;53.77;100322.16;1580462;91;21608;-60
2022/03/07 02:09:44;;;;;;;4.58;2.20;;;;;;;-0.02;53.79;100315.16;1580569;89;21120;-60
2022/03/07 02:12:15;;;;;;;3.92;2.10;;;;;;;-0.02;53.72;100317.86;1580469;89;21077;-61
2022/03/07 02:14:44;;;;;;;4.75;2.20;;;;;;;-0.01;53.78;100306.95;1580430;90;21074;-60
2022/03/07 02:17:14;;;;;;;4.47;2.30;;;;;;;-0.01;53.74;100302.91;1579954;89;21129;-60
2022/03/07 02:19:44;;;;;;;5.03;2.10;;;;;;;-0.05;53.77;100297.44;1632006;86;21046;-60
2022/03/07 02:22:17;;;;;;;4.50;2.00;;;;;;;-0.08;53.91;100292.80;1656511;86;21046;-60
2022/03/07 02:24:48;;;;;;;3.67;2.15;;;;;;;-0.11;54.09;100297.96;1656781;85;21018;-60
2022/03/07 02:27:19;;;;;;;6.03;2.35;;;;;;;-0.11;54.16;100297.11;1656721;86;21133;-61
2022/03/07 02:29:49;;;;;;;3.33;2.00;;;;;;;-0.10;54.27;100287.55;1634535;86;21561;-61
2022/03/07 02:32:22;;;;;;;2.67;1.77;;;;;;;-0.07;54.17;100293.16;1713234;82;21027;-60
2022/03/07 02:34:51;;;;;;;3.87;1.82;;;;;;;-0.10;54.09;100290.25;1737873;82;21051;-61
2022/03/07 02:37:20;;;;;;;5.47;2.30;;;;;;;-0.10;54.21;100289.39;1737821;82;21079;-60
2022/03/07 02:39:55;;;;;;;3.72;2.10;;;;;;;-0.10;54.27;100282.17;1737760;82;21122;-60
2022/03/07 02:42:27;;;;;;;3.77;1.95;;;;;;;-0.10;54.27;100288.05;1735194;81;21035;-60
2022/03/07 02:44:58;;;;;;;5.25;2.17;;;;;;;-0.12;54.28;100277.41;1738032;82;20995;-60
2022/03/07 02:47:27;;;;;;;4.03;1.85;;;;;;;-0.10;54.36;100279.97;1738077;82;21684;-60
2022/03/07 02:49:57;;;;;;;6.65;2.47;;;;;;;-0.10;54.38;100278.62;1737934;82;21370;-60
2022/03/07 02:52:29;;;;;;;4.03;2.15;;;;;;;-0.14;54.34;100271.80;1738176;82;21493;-59
2022/03/07 02:55:00;;;;;;;6.65;2.50;;;;;;;-0.18;54.46;100273.05;1738236;82;21035;-61
2022/03/07 02:57:29;;;;;;;6.17;2.47;;;;;;;-0.20;54.60;100276.36;1717773;82;21067;-61
2022/03/07 02:59:59;;;;;;;4.15;2.10;;;;;;;-0.20;54.75;100271.83;1738042;82;21074;-60
2022/03/07 03:02:29;;;;;;;5.33;2.45;;;;;;;-0.20;54.72;100266.45;1738080;82;21035;-61
2022/03/07 03:04:58;;;;;;;3.42;2.10;;;;;;;-0.22;54.58;100263.03;1737920;82;21115;-59
2022/03/07 03:07:27;;;;;;;3.35;2.08;;;;;;;-0.24;54.59;100261.45;1738052;82;21079;-60
2022/03/07 03:09:58;;;;;;;4.05;2.50;;;;;;;-0.26;54.71;100262.94;1737871;82;21062;-61
2022/03/07 03:12:29;;;;;;;5.10;2.30;;;;;;;-0.22;54.71;100263.52;1738009;82;21028;-60
2022/03/07 03:14:58;;;;;;;3.27;2.00;;;;;;;-0.19;54.78;100264.61;1738110;82;21499;-61
2022/03/07 03:17:28;;;;;;;3.67;2.12;;;;;;;-0.17;54.69;100261.29;1738267;82;21055;-60
2022/03/07 03:19:57;;;;;;;4.20;2.17;;;;;;;-0.18;54.66;100259.58;1740352;82;21467;-60
2022/03/07 03:22:27;;;;;;;6.08;2.50;;;;;;;-0.17;54.72;100262.14;1740244;82;21027;-60
2022/03/07 03:24:57;;;;;;;4.05;2.30;;;;;;;-0.18;54.84;100259.09;1740211;81;21499;-59
2022/03/07 03:27:27;;;;;;;6.50;2.90;;;;;;;-0.17;54.84;100254.55;1740429;82;21055;-61
2022/03/07 03:29:57;;;;;;;4.28;2.75;;;;;;;-0.16;54.92;100251.73;1740177;82;21051;-61
2022/03/07 03:32:27;;;;;;;4.92;2.37;;;;;;;-0.13;54.87;100251.47;1740215;82;21011;-60
2022/03/07 03:34:59;;;;;;;5.00;2.67;;;;;;;-0.12;54.76;100237.51;1740409;82;21035;-60
2022/03/07 03:37:29;;;;;;;3.62;2.00;;;;;;;-0.14;54.81;100239.48;1740402;82;21070;-59
2022/03/07 03:40:00;;;;;;;3.77;2.25;;;;;;;-0.17;54.84;100237.05;1740062;82;21051;-60
2022/03/07 03:42:31;;;;;;;5.37;2.70;;;;;;;-0.20;54.94;100234.63;1740253;81;21067;-57
2022/03/07 03:45:01;;;;;;;4.72;2.20;;;;;;;-0.19;55.06;100233.64;1740286;81;21039;-60
2022/03/07 03:47:34;;;;;;;4.83;2.10;;;;;;;-0.19;55.14;100225.08;1740400;82;21451;-60
2022/03/07 03:50:05;;;;;;;4.08;2.42;;;;;;;-0.19;55.07;100229.61;1740219;82;21102;-60
2022/03/07 03:52:35;;;;;;;4.65;2.70;;;;;;;-0.21;55.16;100223.50;1740454;81;21509;-60
2022/03/07 03:55:06;;;;;;;5.45;2.45;;;;;;;-0.20;55.28;100226.06;1740394;82;21036;-60
2022/03/07 03:57:37;;;;;;;5.08;2.80;;;;;;;-0.22;55.30;100219.95;1740198;82;21043;-60
2022/03/07 04:00:08;;;;;;;4.85;2.47;;;;;;;-0.21;55.41;100214.08;1740382;82;21036;-60
2022/03/07 04:02:44;;;;;;;4.03;2.20;;;;;;;-0.20;55.38;100212.59;1740435;82;21020;-59
2022/03/07 04:05:16;;;;;;;4.28;2.00;;;;;;;-0.19;55.32;100211.61;1740144;81;21424;-60
2022/03/07 04:07:46;;;;;;;4.37;2.60;;;;;;;-0.19;55.38;100207.58;1740121;82;21011;-61
2022/03/07 04:10:17;;;;;;;4.75;2.60;;;;;;;-0.19;55.51;100206.23;1740266;81;21043;-60
2022/03/07 04:12:47;;;;;;;4.33;2.35;;;;;;;-0.22;55.63;100203.80;1740208;81;20996;-60
2022/03/07 04:15:16;;;;;;;4.72;2.25;;;;;;;-0.25;55.42;100211.30;1740211;81;21047;-60
2022/03/07 04:17:46;;;;;;;5.58;2.62;;;;;;;-0.28;55.61;100204.83;1720130;81;21063;-61
2022/03/07 04:20:17;;;;;;;4.33;2.17;;;;;;;-0.29;55.62;100207.16;1740136;82;21055;-60
2022/03/07 04:22:49;;;;;;;4.87;2.67;;;;;;;-0.29;55.61;100201.78;1740356;82;21095;-60
2022/03/07 04:25:19;;;;;;;4.53;2.25;;;;;;;-0.29;55.65;100195.05;1740403;82;21070;-60
2022/03/07 04:27:50;;;;;;;4.10;2.55;;;;;;;-0.29;55.69;100196.39;1686325;85;21066;-59
2022/03/07 04:30:19;;;;;;;6.10;2.85;;;;;;;-0.31;55.81;100192.48;1686353;85;21090;-59
2022/03/07 04:32:50;;;;;;;4.60;2.47;;;;;;;-0.27;55.84;100189.03;1686430;85;21097;-60
2022/03/07 04:35:20;;;;;;;5.00;2.60;;;;;;;-0.25;55.84;100186.57;1686631;85;21082;-60
2022/03/07 04:37:52;;;;;;;4.87;2.45;;;;;;;-0.25;55.75;100181.19;1686135;84;21071;-60
2022/03/07 04:40:23;;;;;;;4.75;2.60;;;;;;;-0.25;55.83;100178.98;1686380;85;21118;-60
2022/03/07 04:42:55;;;;;;;6.20;2.17;;;;;;;-0.24;55.84;100172.62;1686559;85;21495;-59
2022/03/07 04:45:24;;;;;;;6.03;2.47;;;;;;;-0.23;55.84;100170.28;1686577;85;21042;-61
2022/03/07 04:47:54;;;;;;;6.47;2.92;;;;;;;-0.25;55.78;100165.53;1686479;85;21102;-61
2022/03/07 04:50:25;;;;;;;4.78;2.67;;;;;;;-0.27;55.87;100172.39;1686572;85;21031;-61
2022/03/07 04:52:56;;;;;;;4.10;2.35;;;;;;;-0.26;55.93;100172.75;1723184;82;21124;-61
2022/03/07 04:55:26;;;;;;;6.28;2.55;;;;;;;-0.24;55.95;100173.96;1740159;82;21114;-60
2022/03/07 04:57:56;;;;;;;6.72;2.90;;;;;;;-0.27;55.86;100166.16;1740082;82;21090;-60
2022/03/07 05:00:26;;;;;;;6.95;3.08;;;;;;;-0.26;55.93;100162.48;1740259;82;21487;-61
2022/03/07 05:02:55;;;;;;;5.67;2.77;;;;;;;-0.24;55.96;100164.54;1740428;81;21031;-60
2022/03/07 05:05:24;;;;;;;6.58;3.52;;;;;;;-0.23;55.88;100158.17;1740135;82;21030;-60
2022/03/07 05:07:57;;;;;;;10.78;4.45;;;;;;;-0.20;55.94;100168.67;1740096;82;21144;-60
2022/03/07 05:10:29;;;;;;;8.45;3.95;;;;;;;-0.18;55.96;100163.51;1740155;82;21047;-62
2022/03/07 05:13:01;;;;;;;12.73;6.05;;;;;;;-0.15;55.91;100167.77;1740200;81;21083;-61
2022/03/07 05:15:32;;;;;;;13.40;6.10;;;;;;;-0.15;55.85;100156.51;1686284;85;21074;-60
2022/03/07 05:18:01;;;;;;;11.55;5.35;;;;;;;-0.12;55.88;100152.69;1686067;85;21140;-60
2022/03/07 05:20:30;;;;;;;6.75;3.47;;;;;;;-0.09;55.87;100148.38;1683647;85;21090;-61
2022/03/07 05:23:02;;;;;;;7.05;3.35;;;;;;;-0.09;55.76;100145.20;1680465;85;21095;-61
2022/03/07 05:25:32;;;;;;;7.33;3.50;;;;;;;-0.10;55.81;100151.56;1683903;85;21038;-61
2022/03/07 05:28:01;;;;;;;7.55;3.20;;;;;;;-0.07;55.82;100145.06;1683935;85;21439;-61
2022/03/07 05:30:30;;;;;;;6.55;2.85;;;;;;;-0.05;55.77;100141.73;1684000;85;21031;-60
2022/03/07 05:33:00;;;;;;;9.40;4.05;;;;;;;-0.04;55.64;100147.48;1695163;82;21052;-60
2022/03/07 05:35:30;;;;;;;6.55;3.50;;;;;;;-0.07;55.61;100145.06;1737855;82;21035;-63
2022/03/07 05:37:59;;;;;;;9.38;3.77;;;;;;;-0.07;55.74;100139.67;1737710;82;21083;-60
2022/03/07 05:40:28;;;;;;;9.30;4.25;;;;;;;-0.07;55.77;100127.55;1737787;82;21031;-61
2022/03/07 05:42:57;;;;;;;13.60;4.92;;;;;;;-0.04;55.65;100132.66;1737729;82;21076;-61
2022/03/07 05:45:26;;;;;;;10.70;4.53;;;;;;;-0.03;55.64;100131.67;1737841;82;21067;-60
2022/03/07 05:47:56;;;;;;;12.07;4.47;;;;;;;-0.02;55.73;100133.38;1737550;82;21820;-60
2022/03/07 05:50:28;;;;;;;22.80;9.43;;;;;;;0.01;55.71;100128.25;1735402;82;21047;-61
2022/03/07 05:52:57;;;;;;;21.07;10.18;;;;;;;0.00;55.50;100124.70;1737693;82;21039;-61
2022/03/07 05:55:28;;;;;;;19.37;8.05;;;;;;;-0.02;55.52;100125.30;1737713;82;21020;-60
2022/03/07 05:58:00;;;;;;;15.63;6.15;;;;;;;0.01;55.64;100114.78;1737900;82;21051;-59
2022/03/07 06:00:29;;;;;;;19.25;6.25;;;;;;;0.05;55.62;100113.52;1737561;82;21479;-60
2022/03/07 06:02:59;;;;;;;12.70;6.12;;;;;;;0.06;55.58;100114.73;1737728;81;21075;-61
2022/03/07 06:05:28;;;;;;;12.20;5.20;;;;;;;0.10;55.57;100115.30;1717504;82;21509;-60
2022/03/07 06:07:59;;;;;;;15.88;5.47;;;;;;;0.11;55.49;100112.47;1737844;81;21103;-60
2022/03/07 06:10:28;;;;;;;10.32;4.95;;;;;;;0.14;55.42;100115.39;1737847;82;21063;-60
2022/03/07 06:13:01;;;;;;;11.95;5.42;;;;;;;0.17;55.41;100109.72;1737864;82;21071;-59
2022/03/07 06:15:31;;;;;;;11.65;5.30;;;;;;;0.22;55.35;100102.92;1737923;82;21039;-61
2022/03/07 06:18:02;;;;;;;14.53;5.80;;;;;;;0.25;55.14;100098.61;1684010;85;21063;-60
2022/03/07 06:20:32;;;;;;;11.38;5.22;;;;;;;0.26;55.00;100089.53;1684116;85;21090;-61
2022/03/07 06:23:02;;;;;;;11.70;5.55;;;;;;;0.25;55.12;100094.56;1684246;84;21083;-61
2022/03/07 06:25:36;;;;;;;12.88;4.92;;;;;;;0.27;55.17;100094.42;1684298;85;21043;-61
2022/03/07 06:28:06;;;;;;;10.23;5.10;;;;;;;0.31;54.87;100099.89;1684265;85;21039;-61
2022/03/07 06:30:37;;;;;;;15.95;5.95;;;;;;;0.32;54.83;100094.86;1628112;88;21027;-61
2022/03/07 06:33:06;;;;;;;12.73;5.55;;;;;;;0.34;54.80;100096.92;1628286;88;21126;-61
2022/03/07 06:35:36;;;;;;;13.05;5.65;;;;;;;0.37;54.78;100097.98;1641494;85;22048;-62
2022/03/07 06:38:07;;;;;;;16.30;5.65;;;;;;;0.40;54.65;100100.89;1682293;85;21059;-61
2022/03/07 06:40:36;;;;;;;13.88;5.67;;;;;;;0.41;54.59;100092.67;1682314;84;21110;-62
2022/03/07 06:43:06;;;;;;;13.28;4.90;;;;;;;0.43;54.60;100092.53;1682184;85;21047;-61
2022/03/07 06:45:36;;;;;;;10.63;4.50;;;;;;;0.45;54.40;100090.55;1682244;85;21471;-60
2022/03/07 06:48:06;;;;;;;12.23;4.80;;;;;;;0.44;54.29;100084.30;1659760;85;21494;-61
2022/03/07 06:50:38;;;;;;;9.25;4.80;;;;;;;0.42;54.22;100087.63;1682274;85;21075;-61
2022/03/07 06:53:08;;;;;;;12.25;5.12;;;;;;;0.41;54.37;100088.63;1682183;85;21043;-61
2022/03/07 06:55:39;;;;;;;9.03;4.25;;;;;;;0.43;54.37;100096.08;1719215;82;21039;-61
2022/03/07 06:58:08;;;;;;;8.88;4.53;;;;;;;0.43;54.21;100083.95;1738294;82;21004;-60
2022/03/07 07:00:37;;;;;;;9.28;4.35;;;;;;;0.43;54.23;100086.64;1738097;82;21043;-60
2022/03/07 07:03:07;;;;;;;10.65;4.72;;;;;;;0.45;54.26;100078.42;1738162;81;21075;-61
2022/03/07 07:05:37;;;;;;;8.73;3.95;;;;;;;0.48;54.33;100084.87;1738046;82;21102;-62
2022/03/07 07:08:07;;;;;;;13.05;3.95;;;;;;;0.52;54.30;100086.29;1738150;82;21016;-61
2022/03/07 07:10:36;;;;;;;7.08;3.62;;;;;;;0.55;54.28;100087.36;1738103;82;21082;-62
2022/03/07 07:13:06;;;;;;;9.03;4.12;;;;;;;0.60;54.26;100086.44;1738098;82;21470;-60
2022/03/07 07:15:36;;;;;;;6.45;3.42;;;;;;;0.64;54.19;100081.97;1738233;82;21471;-61
2022/03/07 07:18:07;;;;;;;6.67;3.27;;;;;;;0.67;53.93;100074.13;1738026;82;21094;-60
2022/03/07 07:20:36;;;;;;;13.53;3.72;;;;;;;0.69;53.87;100086.11;1738053;82;21055;-61
2022/03/07 07:23:06;;;;;;;7.20;3.72;;;;;;;0.70;53.76;100081.92;1737914;82;21549;-61
2022/03/07 07:25:37;;;;;;;7.20;3.67;;;;;;;0.71;53.74;100078.73;1738134;82;21489;-61
2022/03/07 07:28:07;;;;;;;6.58;3.27;;;;;;;0.71;53.73;100067.45;1738060;82;21483;-61
2022/03/07 07:30:38;;;;;;;6.60;3.47;;;;;;;0.73;53.68;100062.77;1738017;81;21052;-60
2022/03/07 07:33:08;;;;;;;6.03;3.05;;;;;;;0.75;53.69;100061.27;1738033;82;21039;-60
2022/03/07 07:35:38;;;;;;;7.92;3.50;;;;;;;0.78;53.52;100069.92;1738149;82;21464;-60
2022/03/07 07:38:07;;;;;;;9.45;3.33;;;;;;;0.82;53.72;100071.84;1738186;82;21078;-61
2022/03/07 07:40:37;;;;;;;6.37;3.30;;;;;;;0.89;53.65;100056.78;1738311;82;21004;-62
2022/03/07 07:43:06;;;;;;;10.53;3.12;;;;;;;0.94;53.39;100064.80;1738113;81;21040;-61
2022/03/07 07:45:36;;;;;;;6.20;2.65;;;;;;;0.98;53.31;100062.66;1738042;82;21047;-61
2022/03/07 07:48:05;;;;;;;9.15;3.70;;;;;;;1.04;53.30;100063.93;1738048;82;22022;-61
2022/03/07 07:50:36;;;;;;;8.85;3.70;;;;;;;1.10;53.18;100060.66;1738410;82;21091;-60
2022/03/07 07:53:06;;;;;;;6.53;3.17;;;;;;;1.15;53.09;100064.61;1738260;82;21043;-61
2022/03/07 07:55:54;;;;;;;7.87;3.40;;;;;;;1.19;52.58;100059.28;1738001;82;21059;-62
2022/03/07 07:58:23;;;;;;;6.55;3.10;;;;;;;1.21;52.79;100052.38;1738007;82;21094;-61
2022/03/07 08:00:52;;;;;;;9.03;3.55;;;;;;;1.25;52.72;100049.75;1738189;82;21098;-61
2022/03/07 08:03:22;;;;;;;5.92;2.85;;;;;;;1.31;52.71;100052.39;1738059;82;21517;-61
2022/03/07 08:05:51;;;;;;;6.42;2.95;;;;;;;1.35;52.76;100049.25;1738061;82;21137;-60
2022/03/07 08:08:20;;;;;;;7.33;3.72;;;;;;;1.42;52.56;100046.80;1738315;82;21530;-62
2022/03/07 08:10:50;;;;;;;8.63;3.65;;;;;;;1.44;52.49;100047.01;1738374;82;21082;-61
2022/03/07 08:13:24;;;;;;;9.13;3.58;;;;;;;1.46;52.11;100045.02;1738152;81;21075;-62
2022/03/07 08:15:53;;;;;;;7.75;3.70;;;;;;;1.48;52.06;100044.36;1738088;82;21004;-61
2022/03/07 08:18:23;;;;;;;7.90;3.72;;;;;;;1.51;51.86;100045.41;1738221;81;21091;-60
2022/03/07 08:20:56;;;;;;;9.50;5.37;;;;;;;1.53;51.86;100043.42;1750353;80;21117;-61
2022/03/07 08:23:24;;;;;;;9.78;4.40;;;;;;;1.57;51.79;100042.62;1753869;82;21066;-60
2022/03/07 08:25:54;;;;;;;8.78;4.70;;;;;;;1.57;51.89;100047.52;1753726;82;21110;-61
2022/03/07 08:28:24;;;;;;;10.05;4.15;;;;;;;1.62;51.59;100047.58;1753701;82;20995;-62
2022/03/07 08:30:53;;;;;;;49.83;6.42;;;;;;;1.62;51.20;100053.83;1753897;82;21362;-60
2022/03/07 08:33:23;;;;;;;11.22;4.03;;;;;;;1.62;51.15;100039.47;1753901;82;21094;-60
2022/03/07 08:35:55;;;;;;;9.53;4.00;;;;;;;1.57;50.68;100043.47;1754030;82;20998;-63
2022/03/07 08:41:00;;;;;;;10.30;4.17;;;;;;;1.53;51.19;100046.12;1753951;82;21046;-61
2022/03/07 08:43:30;;;;;;;11.50;4.30;;;;;;;1.59;51.15;100049.57;1753869;82;21077;-60
2022/03/07 08:46:00;;;;;;;7.47;4.05;;;;;;;1.65;51.08;100051.33;1753566;82;21270;-61
2022/03/07 08:48:30;;;;;;;9.60;3.98;;;;;;;1.70;50.75;100054.43;1753838;80;21011;-61
2022/03/07 08:51:01;;;;;;;9.40;4.05;;;;;;;1.73;50.65;100046.03;1753819;82;21002;-61
2022/03/07 08:53:31;;;;;;;8.55;3.92;;;;;;;1.75;50.50;100055.68;1753900;82;21038;-61
2022/03/07 08:56:01;;;;;;;9.23;4.03;;;;;;;1.78;50.44;100054.03;1753990;82;21078;-59
2022/03/07 08:58:31;;;;;;;9.80;4.28;;;;;;;1.80;50.34;100047.13;1749530;82;21114;-60
2022/03/07 09:01:01;;;;;;;11.83;4.67;;;;;;;1.80;50.29;100055.23;1753791;80;21159;-61
2022/03/07 09:03:32;;;;;;;8.58;4.25;;;;;;;1.78;50.17;100058.08;1753852;82;21019;-61
2022/03/07 09:06:03;;;;;;;10.00;4.90;;;;;;;1.74;50.11;100053.98;1754085;82;21031;-60
2022/03/07 09:08:33;;;;;;;12.80;4.80;;;;;;;1.70;50.17;100058.48;1753871;82;21062;-60
2022/03/07 09:11:03;;;;;;;13.38;5.22;;;;;;;1.72;50.45;100057.83;1753896;82;21077;-61
2022/03/07 09:13:33;;;;;;;10.72;4.50;;;;;;;1.76;50.40;100057.88;1753926;82;21251;-60
2022/03/07 09:16:02;;;;;;;12.15;4.33;;;;;;;1.80;50.06;100052.53;1753893;82;21101;-61
2022/03/07 09:18:32;;;;;;;11.83;4.40;;;;;;;1.83;50.32;100056.28;1753993;82;21039;-61
2022/03/07 09:21:03;;;;;;;9.85;4.62;;;;;;;1.84;50.11;100053.43;1742517;82;21063;-61
2022/03/07 09:23:37;;;;;;;8.30;3.95;;;;;;;1.90;50.37;100058.73;1738198;82;21075;-60
2022/03/07 09:26:06;;;;;;;9.15;4.22;;;;;;;2.00;50.04;100057.36;1737918;82;21495;-61
2022/03/07 09:28:35;;;;;;;14.25;4.42;;;;;;;2.02;49.84;100056.20;1738103;82;21047;-61
2022/03/07 09:31:06;;;;;;;8.23;4.28;;;;;;;2.02;49.90;100056.70;1738007;82;21067;-60
2022/03/07 09:33:35;;;;;;;13.68;4.60;;;;;;;2.06;50.00;100055.40;1738075;82;21479;-61
2022/03/07 09:36:06;;;;;;;11.70;4.62;;;;;;;2.10;49.96;100054.94;1738164;81;21543;-61
2022/03/07 09:38:40;;;;;;;7.20;3.87;;;;;;;2.15;49.46;100056.69;1738090;82;21118;-61
2022/03/07 09:41:10;;;;;;;8.90;3.87;;;;;;;2.21;49.29;100056.08;1738114;82;21060;-61
2022/03/07 09:43:40;;;;;;;10.60;3.90;;;;;;;2.26;48.79;100049.36;1738066;81;21079;-61
2022/03/07 09:46:10;;;;;;;11.28;4.42;;;;;;;2.27;48.50;100043.80;1738070;82;21508;-61
2022/03/07 09:48:39;;;;;;;9.18;4.65;;;;;;;2.30;48.42;100042.64;1738068;82;21067;-61
2022/03/07 09:51:08;;;;;;;9.25;4.22;;;;;;;2.32;48.56;100046.05;1717735;82;21051;-60
2022/03/07 09:53:37;;;;;;;9.88;4.47;;;;;;;2.39;48.35;100047.13;1738378;82;21039;-63
2022/03/07 09:56:06;;;;;;;8.40;4.55;;;;;;;2.43;47.81;100043.97;1738326;82;21448;-61
2022/03/07 09:58:36;;;;;;;7.33;4.30;;;;;;;2.49;47.76;100039.80;1738149;82;21050;-61
2022/03/07 10:01:13;;;;;;;11.93;4.55;;;;;;;2.57;47.20;100041.72;1738081;82;21464;-62
2022/03/07 10:03:44;;;;;;;11.15;5.35;;;;;;;2.55;47.14;100036.47;1737877;82;21444;-61
2022/03/07 10:06:17;;;;;;;9.45;4.97;;;;;;;2.58;47.23;100025.34;1738137;82;21035;-62
2022/03/07 10:08:58;;;;;;;8.33;4.25;;;;;;;2.64;47.25;100023.39;1738077;82;21008;-61
2022/03/07 10:11:29;;;;;;;10.68;5.17;;;;;;;2.64;47.09;100024.75;1738346;82;21545;-62
2022/03/07 10:14:03;;;;;;;14.73;6.55;;;;;;;2.63;46.87;100027.11;1738024;82;21659;-61
2022/03/07 10:16:41;;;;;;;15.45;7.25;;;;;;;2.66;47.24;100016.48;1738489;82;21051;-61
2022/03/07 10:19:14;;;;;;;15.93;6.90;;;;;;;2.72;47.42;100022.11;1737989;82;21036;-61
2022/03/07 10:21:52;;;;;;;13.88;6.80;;;;;;;2.77;47.38;100015.72;1739818;82;21098;-61
2022/03/07 10:24:33;;;;;;;14.15;6.92;;;;;;;2.79;47.09;100017.77;1740157;81;21459;-61
2022/03/07 10:27:03;;;;;;;12.23;6.35;;;;;;;2.81;47.39;100007.64;1737851;82;21032;-61
2022/03/07 10:29:32;;;;;;;16.00;7.30;;;;;;;2.90;46.88;100007.70;1740382;82;21126;-60
2022/03/07 10:32:02;;;;;;;11.50;6.85;;;;;;;2.93;46.61;100013.64;1740226;82;21027;-61
2022/03/07 10:34:36;;;;;;;13.68;6.58;;;;;;;2.90;46.43;100008.55;1740246;82;21055;-61
2022/03/07 10:37:06;;;;;;;11.65;6.25;;;;;;;2.81;46.47;100013.05;1740204;81;21483;-61
2022/03/07 10:39:36;;;;;;;10.08;5.42;;;;;;;2.74;46.75;100008.42;1740237;81;21007;-62
2022/03/07 10:42:06;;;;;;;10.60;5.20;;;;;;;2.69;46.78;100008.90;1740359;81;21047;-61
2022/03/07 10:44:37;;;;;;;10.50;5.12;;;;;;;2.70;46.75;100010.59;1719895;82;21543;-62
2022/03/07 10:47:18;;;;;;;8.23;4.00;;;;;;;2.67;46.57;100004.66;1740208;82;21043;-61
2022/03/07 10:49:55;;;;;;;8.73;3.52;;;;;;;2.57;46.85;100000.66;1740158;82;21086;-60
2022/03/07 10:52:25;;;;;;;9.10;3.95;;;;;;;2.52;46.57;99994.87;1740446;81;21495;-62
2022/03/07 10:54:54;;;;;;;8.08;4.00;;;;;;;2.43;46.84;100006.61;1740157;82;21075;-61
2022/03/07 10:57:23;;;;;;;10.93;3.75;;;;;;;2.38;46.26;100000.83;1740252;82;21043;-60
2022/03/07 10:59:53;;;;;;;8.80;3.47;;;;;;;2.26;46.63;100003.41;1740237;82;21035;-62
2022/03/07 11:02:22;;;;;;;7.83;3.02;;;;;;;2.21;46.70;100003.88;1720145;82;21020;-61
2022/03/07 11:04:53;;;;;;;7.40;3.17;;;;;;;2.18;46.81;99998.28;1740407;82;21035;-60
2022/03/07 11:07:24;;;;;;;17.07;3.92;;;;;;;2.20;47.05;99992.72;1720167;82;21074;-60
2022/03/07 11:09:53;;;;;;;9.28;3.10;;;;;;;2.25;47.16;99999.01;1740159;82;21111;-60
2022/03/07 11:12:24;;;;;;;7.35;2.98;;;;;;;2.29;47.20;99990.94;1740197;82;21506;-60
2022/03/07 11:14:54;;;;;;;10.15;3.27;;;;;;;2.31;47.33;99989.78;1719966;82;21079;-60
2022/03/07 11:17:23;;;;;;;7.75;3.10;;;;;;;2.33;47.35;99981.02;1720009;82;21055;-60
2022/03/07 11:19:54;;;;;;;7.10;3.22;;;;;;;2.34;47.45;99988.13;1740073;82;21047;-61
2022/03/07 11:22:25;;;;;;;7.70;3.20;;;;;;;2.37;47.58;99989.66;1740989;81;21101;-60
2022/03/07 11:24:54;;;;;;;7.83;3.00;;;;;;;2.38;47.45;99985.45;1740908;81;21034;-60
2022/03/07 11:27:24;;;;;;;9.13;3.05;;;;;;;2.38;47.44;99983.25;1740834;82;21445;-62
2022/03/07 11:29:55;;;;;;;7.47;3.00;;;;;;;2.38;47.29;99983.25;1740760;81;21050;-61
2022/03/07 11:32:24;;;;;;;32.53;4.05;;;;;;;2.37;47.49;99981.55;1740931;82;21500;-61
2022/03/07 11:34:59;;;;;;;6.58;3.52;;;;;;;2.38;47.30;99975.14;1740978;81;21042;-60
2022/03/07 11:37:32;;;;;;;11.28;4.42;;;;;;;2.37;46.78;99965.33;1740987;82;21070;-61
2022/03/07 11:40:04;;;;;;;6.28;3.75;;;;;;;2.36;46.99;99975.80;1740963;82;21018;-61
2022/03/07 11:42:38;;;;;;;9.28;3.35;;;;;;;2.36;47.03;99971.75;1739165;81;21062;-60
2022/03/07 11:45:18;;;;;;;7.87;3.40;;;;;;;2.37;46.99;99962.63;1740982;81;20983;-60
2022/03/07 11:47:49;;;;;;;9.00;3.92;;;;;;;2.38;46.68;99967.03;1740662;81;21038;-61